sensor_id;sensor_type;location;lat;lon;timestamp;P1;durP1;ratioP1;P2;durP2;ratioP2
45077;SDS011;60508;42.622;25.416;2023-05-06T00:01:20;9.30;;;5.90;;
45077;SDS011;60508;42.622;25.416;2023-05-06T00:03:46;6.50;;;3.85;;
45077;SDS011;60508;42.622;25.416;2023-05-06T00:06:13;5.32;;;4.03;;
45077;SDS011;60508;42.622;25.416;2023-05-06T00:08:39;3.78;;;3.38;;
45077;SDS011;60508;42.622;25.416;2023-05-06T00:11:05;20.67;;;4.82;;
45077;SDS011;60508;42.622;25.416;2023-05-06T00:13:31;7.85;;;4.78;;
45077;SDS011;60508;42.622;25.416;2023-05-06T00:15:57;12.63;;;4.10;;
45077;SDS011;60508;42.622;25.416;2023-05-06T00:18:24;5.22;;;4.15;;
45077;SDS011;60508;42.622;25.416;2023-05-06T00:20:50;6.97;;;5.22;;
45077;SDS011;60508;42.622;25.416;2023-05-06T00:23:16;6.35;;;4.43;;
45077;SDS011;60508;42.622;25.416;2023-05-06T00:25:43;6.72;;;5.18;;
45077;SDS011;60508;42.622;25.416;2023-05-06T00:28:10;4.25;;;3.85;;
45077;SDS011;60508;42.622;25.416;2023-05-06T00:30:36;8.13;;;4.43;;
45077;SDS011;60508;42.622;25.416;2023-05-06T00:33:02;6.68;;;4.38;;
45077;SDS011;60508;42.622;25.416;2023-05-06T00:35:28;6.72;;;5.05;;
45077;SDS011;60508;42.622;25.416;2023-05-06T00:37:56;7.00;;;4.47;;
45077;SDS011;60508;42.622;25.416;2023-05-06T00:40:23;5.38;;;4.80;;
45077;SDS011;60508;42.622;25.416;2023-05-06T00:42:49;14.30;;;5.18;;
45077;SDS011;60508;42.622;25.416;2023-05-06T00:45:15;6.00;;;4.93;;
45077;SDS011;60508;42.622;25.416;2023-05-06T00:47:42;9.20;;;5.10;;
45077;SDS011;60508;42.622;25.416;2023-05-06T00:50:09;8.70;;;4.63;;
45077;SDS011;60508;42.622;25.416;2023-05-06T00:52:35;8.05;;;5.63;;
45077;SDS011;60508;42.622;25.416;2023-05-06T00:55:02;5.45;;;4.55;;
45077;SDS011;60508;42.622;25.416;2023-05-06T00:57:28;9.15;;;5.13;;
45077;SDS011;60508;42.622;25.416;2023-05-06T00:59:54;17.35;;;5.03;;
45077;SDS011;60508;42.622;25.416;2023-05-06T01:02:20;7.28;;;4.22;;
45077;SDS011;60508;42.622;25.416;2023-05-06T01:04:47;7.90;;;4.15;;
45077;SDS011;60508;42.622;25.416;2023-05-06T01:07:25;5.95;;;5.05;;
45077;SDS011;60508;42.622;25.416;2023-05-06T01:12:31;9.15;;;4.25;;
45077;SDS011;60508;42.622;25.416;2023-05-06T01:15:08;7.57;;;4.85;;
45077;SDS011;60508;42.622;25.416;2023-05-06T01:17:44;5.82;;;4.47;;
45077;SDS011;60508;42.622;25.416;2023-05-06T01:20:14;9.20;;;4.75;;
45077;SDS011;60508;42.622;25.416;2023-05-06T01:22:42;10.10;;;4.43;;
45077;SDS011;60508;42.622;25.416;2023-05-06T01:25:16;8.90;;;4.90;;
45077;SDS011;60508;42.622;25.416;2023-05-06T01:27:46;6.30;;;4.43;;
45077;SDS011;60508;42.622;25.416;2023-05-06T01:30:13;5.97;;;4.20;;
45077;SDS011;60508;42.622;25.416;2023-05-06T01:32:57;10.15;;;4.25;;
45077;SDS011;60508;42.622;25.416;2023-05-06T01:35:34;6.32;;;4.30;;
45077;SDS011;60508;42.622;25.416;2023-05-06T01:38:29;11.45;;;4.70;;
45077;SDS011;60508;42.622;25.416;2023-05-06T01:41:02;7.70;;;4.30;;
45077;SDS011;60508;42.622;25.416;2023-05-06T01:43:32;11.27;;;4.15;;
45077;SDS011;60508;42.622;25.416;2023-05-06T01:46:02;4.63;;;4.22;;
45077;SDS011;60508;42.622;25.416;2023-05-06T01:48:30;5.18;;;3.70;;
45077;SDS011;60508;42.622;25.416;2023-05-06T01:50:58;4.85;;;3.97;;
45077;SDS011;60508;42.622;25.416;2023-05-06T01:53:25;11.57;;;4.80;;
45077;SDS011;60508;42.622;25.416;2023-05-06T01:55:51;9.85;;;5.15;;
45077;SDS011;60508;42.622;25.416;2023-05-06T01:58:17;9.32;;;4.47;;
45077;SDS011;60508;42.622;25.416;2023-05-06T02:00:43;9.85;;;5.15;;
45077;SDS011;60508;42.622;25.416;2023-05-06T02:03:10;7.50;;;4.57;;
45077;SDS011;60508;42.622;25.416;2023-05-06T02:05:37;6.40;;;4.53;;
45077;SDS011;60508;42.622;25.416;2023-05-06T02:08:03;4.93;;;4.03;;
45077;SDS011;60508;42.622;25.416;2023-05-06T02:10:29;6.22;;;5.00;;
45077;SDS011;60508;42.622;25.416;2023-05-06T02:13:03;10.02;;;5.45;;
45077;SDS011;60508;42.622;25.416;2023-05-06T02:15:29;7.07;;;3.28;;
45077;SDS011;60508;42.622;25.416;2023-05-06T02:17:56;6.50;;;3.78;;
45077;SDS011;60508;42.622;25.416;2023-05-06T02:20:25;7.43;;;4.47;;
45077;SDS011;60508;42.622;25.416;2023-05-06T02:22:52;5.70;;;4.55;;
45077;SDS011;60508;42.622;25.416;2023-05-06T02:25:18;12.30;;;4.28;;
45077;SDS011;60508;42.622;25.416;2023-05-06T02:27:44;6.10;;;4.47;;
45077;SDS011;60508;42.622;25.416;2023-05-06T02:30:11;5.57;;;3.75;;
45077;SDS011;60508;42.622;25.416;2023-05-06T02:32:37;6.75;;;4.38;;
45077;SDS011;60508;42.622;25.416;2023-05-06T02:35:03;4.85;;;4.07;;
45077;SDS011;60508;42.622;25.416;2023-05-06T02:37:29;6.05;;;4.20;;
45077;SDS011;60508;42.622;25.416;2023-05-06T02:39:56;6.50;;;3.80;;
45077;SDS011;60508;42.622;25.416;2023-05-06T02:42:22;7.80;;;3.83;;
45077;SDS011;60508;42.622;25.416;2023-05-06T02:44:48;6.65;;;4.28;;
45077;SDS011;60508;42.622;25.416;2023-05-06T02:47:14;3.70;;;3.35;;
45077;SDS011;60508;42.622;25.416;2023-05-06T02:49:40;6.13;;;4.28;;
45077;SDS011;60508;42.622;25.416;2023-05-06T02:52:07;10.77;;;4.38;;
45077;SDS011;60508;42.622;25.416;2023-05-06T02:54:33;9.18;;;4.50;;
45077;SDS011;60508;42.622;25.416;2023-05-06T02:56:59;5.30;;;3.67;;
45077;SDS011;60508;42.622;25.416;2023-05-06T02:59:26;13.13;;;5.75;;
45077;SDS011;60508;42.622;25.416;2023-05-06T03:01:52;9.10;;;4.57;;
45077;SDS011;60508;42.622;25.416;2023-05-06T03:04:18;4.88;;;4.38;;
45077;SDS011;60508;42.622;25.416;2023-05-06T03:06:44;6.78;;;4.22;;
45077;SDS011;60508;42.622;25.416;2023-05-06T03:09:10;7.45;;;4.18;;
45077;SDS011;60508;42.622;25.416;2023-05-06T03:11:36;5.15;;;4.15;;
45077;SDS011;60508;42.622;25.416;2023-05-06T03:14:03;4.63;;;3.65;;
45077;SDS011;60508;42.622;25.416;2023-05-06T03:16:31;11.48;;;4.20;;
45077;SDS011;60508;42.622;25.416;2023-05-06T03:18:59;7.03;;;4.90;;
45077;SDS011;60508;42.622;25.416;2023-05-06T03:21:25;3.88;;;3.38;;
45077;SDS011;60508;42.622;25.416;2023-05-06T03:23:52;11.07;;;4.38;;
45077;SDS011;60508;42.622;25.416;2023-05-06T03:26:20;9.60;;;4.57;;
45077;SDS011;60508;42.622;25.416;2023-05-06T03:28:47;6.38;;;4.85;;
45077;SDS011;60508;42.622;25.416;2023-05-06T03:31:15;5.13;;;4.33;;
45077;SDS011;60508;42.622;25.416;2023-05-06T03:33:41;6.13;;;4.68;;
45077;SDS011;60508;42.622;25.416;2023-05-06T03:36:09;7.35;;;4.43;;
45077;SDS011;60508;42.622;25.416;2023-05-06T03:38:37;13.38;;;5.00;;
45077;SDS011;60508;42.622;25.416;2023-05-06T03:41:07;6.72;;;4.05;;
45077;SDS011;60508;42.622;25.416;2023-05-06T03:43:33;8.35;;;4.68;;
45077;SDS011;60508;42.622;25.416;2023-05-06T03:46:01;7.30;;;4.80;;
45077;SDS011;60508;42.622;25.416;2023-05-06T03:48:29;11.90;;;5.40;;
45077;SDS011;60508;42.622;25.416;2023-05-06T03:50:56;11.57;;;4.78;;
45077;SDS011;60508;42.622;25.416;2023-05-06T03:53:22;9.55;;;5.18;;
45077;SDS011;60508;42.622;25.416;2023-05-06T03:55:49;9.18;;;4.75;;
45077;SDS011;60508;42.622;25.416;2023-05-06T03:58:15;8.07;;;4.88;;
45077;SDS011;60508;42.622;25.416;2023-05-06T04:00:44;7.55;;;4.80;;
45077;SDS011;60508;42.622;25.416;2023-05-06T04:03:10;6.75;;;5.00;;
45077;SDS011;60508;42.622;25.416;2023-05-06T04:05:47;9.20;;;6.40;;
45077;SDS011;60508;42.622;25.416;2023-05-06T04:08:15;11.95;;;5.75;;
45077;SDS011;60508;42.622;25.416;2023-05-06T04:10:44;7.55;;;5.80;;
45077;SDS011;60508;42.622;25.416;2023-05-06T04:13:16;12.75;;;6.38;;
45077;SDS011;60508;42.622;25.416;2023-05-06T04:15:44;17.00;;;4.78;;
45077;SDS011;60508;42.622;25.416;2023-05-06T04:18:17;10.23;;;5.93;;
45077;SDS011;60508;42.622;25.416;2023-05-06T04:20:50;7.38;;;5.25;;
45077;SDS011;60508;42.622;25.416;2023-05-06T04:23:17;18.65;;;6.15;;
45077;SDS011;60508;42.622;25.416;2023-05-06T04:25:44;6.38;;;5.78;;
45077;SDS011;60508;42.622;25.416;2023-05-06T04:28:14;8.52;;;4.82;;
45077;SDS011;60508;42.622;25.416;2023-05-06T04:30:43;8.15;;;5.60;;
45077;SDS011;60508;42.622;25.416;2023-05-06T04:33:12;13.23;;;6.05;;
45077;SDS011;60508;42.622;25.416;2023-05-06T04:35:38;8.40;;;5.35;;
45077;SDS011;60508;42.622;25.416;2023-05-06T04:38:05;13.55;;;4.80;;
45077;SDS011;60508;42.622;25.416;2023-05-06T04:40:31;19.77;;;4.38;;
45077;SDS011;60508;42.622;25.416;2023-05-06T04:42:59;8.65;;;4.82;;
45077;SDS011;60508;42.622;25.416;2023-05-06T04:45:29;7.47;;;4.47;;
45077;SDS011;60508;42.622;25.416;2023-05-06T04:47:57;9.75;;;5.15;;
45077;SDS011;60508;42.622;25.416;2023-05-06T04:50:24;7.40;;;4.32;;
45077;SDS011;60508;42.622;25.416;2023-05-06T04:52:51;13.23;;;5.63;;
45077;SDS011;60508;42.622;25.416;2023-05-06T04:55:19;8.68;;;6.43;;
45077;SDS011;60508;42.622;25.416;2023-05-06T04:57:49;5.55;;;5.05;;
45077;SDS011;60508;42.622;25.416;2023-05-06T05:00:16;7.97;;;4.95;;
45077;SDS011;60508;42.622;25.416;2023-05-06T05:02:44;9.90;;;4.95;;
45077;SDS011;60508;42.622;25.416;2023-05-06T05:05:10;18.75;;;5.20;;
45077;SDS011;60508;42.622;25.416;2023-05-06T05:07:39;11.13;;;4.60;;
45077;SDS011;60508;42.622;25.416;2023-05-06T05:10:05;7.63;;;4.30;;
45077;SDS011;60508;42.622;25.416;2023-05-06T05:12:32;8.65;;;4.80;;
45077;SDS011;60508;42.622;25.416;2023-05-06T05:15:00;10.82;;;5.53;;
45077;SDS011;60508;42.622;25.416;2023-05-06T05:17:27;8.95;;;4.75;;
45077;SDS011;60508;42.622;25.416;2023-05-06T05:19:55;7.18;;;5.30;;
45077;SDS011;60508;42.622;25.416;2023-05-06T05:22:24;8.15;;;5.05;;
45077;SDS011;60508;42.622;25.416;2023-05-06T05:24:50;9.65;;;4.53;;
45077;SDS011;60508;42.622;25.416;2023-05-06T05:27:17;6.90;;;5.65;;
45077;SDS011;60508;42.622;25.416;2023-05-06T05:29:44;16.75;;;9.63;;
45077;SDS011;60508;42.622;25.416;2023-05-06T05:32:10;16.65;;;8.82;;
45077;SDS011;60508;42.622;25.416;2023-05-06T05:34:36;6.85;;;4.45;;
45077;SDS011;60508;42.622;25.416;2023-05-06T05:37:02;9.02;;;6.85;;
45077;SDS011;60508;42.622;25.416;2023-05-06T05:39:29;5.82;;;4.60;;
45077;SDS011;60508;42.622;25.416;2023-05-06T05:41:55;7.95;;;5.30;;
45077;SDS011;60508;42.622;25.416;2023-05-06T05:44:21;12.60;;;5.03;;
45077;SDS011;60508;42.622;25.416;2023-05-06T05:46:48;9.00;;;5.03;;
45077;SDS011;60508;42.622;25.416;2023-05-06T05:49:18;10.65;;;5.10;;
45077;SDS011;60508;42.622;25.416;2023-05-06T05:51:44;8.13;;;4.45;;
45077;SDS011;60508;42.622;25.416;2023-05-06T05:56:40;21.25;;;4.75;;
45077;SDS011;60508;42.622;25.416;2023-05-06T05:59:07;12.13;;;5.03;;
45077;SDS011;60508;42.622;25.416;2023-05-06T06:01:34;7.28;;;3.53;;
45077;SDS011;60508;42.622;25.416;2023-05-06T06:04:02;9.85;;;3.95;;
45077;SDS011;60508;42.622;25.416;2023-05-06T06:06:29;14.98;;;4.88;;
45077;SDS011;60508;42.622;25.416;2023-05-06T06:08:57;6.43;;;4.18;;
45077;SDS011;60508;42.622;25.416;2023-05-06T06:11:24;9.55;;;4.07;;
45077;SDS011;60508;42.622;25.416;2023-05-06T06:13:51;6.03;;;3.22;;
45077;SDS011;60508;42.622;25.416;2023-05-06T06:16:17;9.93;;;4.13;;
45077;SDS011;60508;42.622;25.416;2023-05-06T06:18:44;10.05;;;4.50;;
45077;SDS011;60508;42.622;25.416;2023-05-06T06:21:09;10.35;;;5.53;;
45077;SDS011;60508;42.622;25.416;2023-05-06T06:23:36;6.90;;;4.53;;
45077;SDS011;60508;42.622;25.416;2023-05-06T06:26:02;11.00;;;3.75;;
45077;SDS011;60508;42.622;25.416;2023-05-06T06:28:31;10.10;;;3.95;;
45077;SDS011;60508;42.622;25.416;2023-05-06T06:30:58;7.97;;;3.80;;
45077;SDS011;60508;42.622;25.416;2023-05-06T06:33:24;8.20;;;3.40;;
45077;SDS011;60508;42.622;25.416;2023-05-06T06:35:50;3.97;;;3.58;;
45077;SDS011;60508;42.622;25.416;2023-05-06T06:38:16;10.48;;;4.50;;
45077;SDS011;60508;42.622;25.416;2023-05-06T06:40:43;9.57;;;4.10;;
45077;SDS011;60508;42.622;25.416;2023-05-06T06:43:09;4.68;;;2.95;;
45077;SDS011;60508;42.622;25.416;2023-05-06T06:45:54;15.45;;;3.92;;
45077;SDS011;60508;42.622;25.416;2023-05-06T06:48:21;7.10;;;4.28;;
45077;SDS011;60508;42.622;25.416;2023-05-06T06:50:47;8.45;;;3.28;;
45077;SDS011;60508;42.622;25.416;2023-05-06T06:53:13;5.32;;;4.63;;
45077;SDS011;60508;42.622;25.416;2023-05-06T06:55:43;10.35;;;5.95;;
45077;SDS011;60508;42.622;25.416;2023-05-06T06:58:09;6.93;;;3.53;;
45077;SDS011;60508;42.622;25.416;2023-05-06T07:00:36;7.65;;;2.83;;
45077;SDS011;60508;42.622;25.416;2023-05-06T07:03:02;4.82;;;3.03;;
45077;SDS011;60508;42.622;25.416;2023-05-06T07:05:28;3.85;;;3.00;;
45077;SDS011;60508;42.622;25.416;2023-05-06T07:07:54;3.95;;;2.63;;
45077;SDS011;60508;42.622;25.416;2023-05-06T07:10:21;9.27;;;2.92;;
45077;SDS011;60508;42.622;25.416;2023-05-06T07:12:47;7.05;;;3.03;;
45077;SDS011;60508;42.622;25.416;2023-05-06T07:15:13;6.78;;;2.80;;
45077;SDS011;60508;42.622;25.416;2023-05-06T07:17:39;7.25;;;2.70;;
45077;SDS011;60508;42.622;25.416;2023-05-06T07:20:05;4.20;;;2.40;;
45077;SDS011;60508;42.622;25.416;2023-05-06T07:22:32;4.22;;;2.75;;
45077;SDS011;60508;42.622;25.416;2023-05-06T07:24:58;9.02;;;3.28;;
45077;SDS011;60508;42.622;25.416;2023-05-06T07:27:25;5.70;;;2.55;;
45077;SDS011;60508;42.622;25.416;2023-05-06T07:29:52;4.00;;;2.33;;
45077;SDS011;60508;42.622;25.416;2023-05-06T07:32:18;5.13;;;2.58;;
45077;SDS011;60508;42.622;25.416;2023-05-06T07:34:44;4.95;;;2.10;;
45077;SDS011;60508;42.622;25.416;2023-05-06T07:37:10;6.85;;;3.15;;
45077;SDS011;60508;42.622;25.416;2023-05-06T07:39:36;5.18;;;2.40;;
45077;SDS011;60508;42.622;25.416;2023-05-06T07:42:03;6.45;;;2.75;;
45077;SDS011;60508;42.622;25.416;2023-05-06T07:44:29;3.88;;;1.98;;
45077;SDS011;60508;42.622;25.416;2023-05-06T07:46:56;8.63;;;3.50;;
45077;SDS011;60508;42.622;25.416;2023-05-06T07:49:22;7.50;;;3.00;;
45077;SDS011;60508;42.622;25.416;2023-05-06T07:51:48;4.63;;;2.58;;
45077;SDS011;60508;42.622;25.416;2023-05-06T07:54:14;6.85;;;2.50;;
45077;SDS011;60508;42.622;25.416;2023-05-06T07:56:40;4.28;;;2.80;;
45077;SDS011;60508;42.622;25.416;2023-05-06T07:59:06;7.90;;;3.25;;
45077;SDS011;60508;42.622;25.416;2023-05-06T08:01:32;8.13;;;2.78;;
45077;SDS011;60508;42.622;25.416;2023-05-06T08:03:58;14.80;;;2.85;;
45077;SDS011;60508;42.622;25.416;2023-05-06T08:06:25;3.65;;;2.78;;
45077;SDS011;60508;42.622;25.416;2023-05-06T08:08:51;5.85;;;2.33;;
45077;SDS011;60508;42.622;25.416;2023-05-06T08:11:18;2.28;;;2.00;;
45077;SDS011;60508;42.622;25.416;2023-05-06T08:13:44;8.98;;;2.47;;
45077;SDS011;60508;42.622;25.416;2023-05-06T08:16:11;3.58;;;1.88;;
45077;SDS011;60508;42.622;25.416;2023-05-06T08:18:38;9.27;;;2.92;;
45077;SDS011;60508;42.622;25.416;2023-05-06T08:21:04;7.88;;;3.60;;
45077;SDS011;60508;42.622;25.416;2023-05-06T08:23:30;5.82;;;2.00;;
45077;SDS011;60508;42.622;25.416;2023-05-06T08:25:56;8.27;;;2.60;;
45077;SDS011;60508;42.622;25.416;2023-05-06T08:28:23;7.78;;;2.65;;
45077;SDS011;60508;42.622;25.416;2023-05-06T08:30:49;14.15;;;4.43;;
45077;SDS011;60508;42.622;25.416;2023-05-06T08:33:17;10.10;;;2.78;;
45077;SDS011;60508;42.622;25.416;2023-05-06T08:35:43;9.75;;;2.92;;
45077;SDS011;60508;42.622;25.416;2023-05-06T08:38:10;15.40;;;5.22;;
45077;SDS011;60508;42.622;25.416;2023-05-06T08:40:40;11.38;;;4.53;;
45077;SDS011;60508;42.622;25.416;2023-05-06T08:43:10;9.32;;;3.65;;
45077;SDS011;60508;42.622;25.416;2023-05-06T08:45:37;19.48;;;5.90;;
45077;SDS011;60508;42.622;25.416;2023-05-06T08:48:03;11.13;;;2.95;;
45077;SDS011;60508;42.622;25.416;2023-05-06T08:50:29;5.22;;;3.63;;
45077;SDS011;60508;42.622;25.416;2023-05-06T08:52:55;42.30;;;5.55;;
45077;SDS011;60508;42.622;25.416;2023-05-06T08:55:22;8.35;;;3.33;;
45077;SDS011;60508;42.622;25.416;2023-05-06T08:57:51;11.35;;;2.97;;
45077;SDS011;60508;42.622;25.416;2023-05-06T09:00:18;9.98;;;2.67;;
45077;SDS011;60508;42.622;25.416;2023-05-06T09:02:44;9.93;;;3.38;;
45077;SDS011;60508;42.622;25.416;2023-05-06T09:05:10;13.85;;;2.63;;
45077;SDS011;60508;42.622;25.416;2023-05-06T09:07:36;6.20;;;2.70;;
45077;SDS011;60508;42.622;25.416;2023-05-06T09:10:06;9.35;;;2.67;;
45077;SDS011;60508;42.622;25.416;2023-05-06T09:12:37;3.92;;;3.00;;
45077;SDS011;60508;42.622;25.416;2023-05-06T09:15:04;4.85;;;2.53;;
45077;SDS011;60508;42.622;25.416;2023-05-06T09:17:31;7.55;;;1.83;;
45077;SDS011;60508;42.622;25.416;2023-05-06T09:19:57;27.83;;;4.05;;
45077;SDS011;60508;42.622;25.416;2023-05-06T09:22:24;12.48;;;2.58;;
45077;SDS011;60508;42.622;25.416;2023-05-06T09:24:52;11.45;;;2.78;;
45077;SDS011;60508;42.622;25.416;2023-05-06T09:27:30;13.52;;;3.30;;
45077;SDS011;60508;42.622;25.416;2023-05-06T09:30:00;8.55;;;2.70;;
45077;SDS011;60508;42.622;25.416;2023-05-06T09:32:27;5.90;;;2.55;;
45077;SDS011;60508;42.622;25.416;2023-05-06T09:34:54;6.85;;;2.78;;
45077;SDS011;60508;42.622;25.416;2023-05-06T09:37:21;7.78;;;5.38;;
45077;SDS011;60508;42.622;25.416;2023-05-06T09:39:48;6.18;;;4.22;;
45077;SDS011;60508;42.622;25.416;2023-05-06T09:42:18;9.70;;;4.55;;
45077;SDS011;60508;42.622;25.416;2023-05-06T09:44:46;6.60;;;4.07;;
45077;SDS011;60508;42.622;25.416;2023-05-06T09:47:11;12.63;;;6.70;;
45077;SDS011;60508;42.622;25.416;2023-05-06T09:49:39;16.73;;;8.52;;
45077;SDS011;60508;42.622;25.416;2023-05-06T09:52:06;14.00;;;5.03;;
45077;SDS011;60508;42.622;25.416;2023-05-06T09:54:32;4.60;;;3.55;;
45077;SDS011;60508;42.622;25.416;2023-05-06T09:57:00;4.50;;;3.42;;
45077;SDS011;60508;42.622;25.416;2023-05-06T09:59:28;7.20;;;5.22;;
45077;SDS011;60508;42.622;25.416;2023-05-06T10:01:56;14.32;;;4.40;;
45077;SDS011;60508;42.622;25.416;2023-05-06T10:04:26;10.15;;;3.97;;
45077;SDS011;60508;42.622;25.416;2023-05-06T10:06:58;8.02;;;2.60;;
45077;SDS011;60508;42.622;25.416;2023-05-06T10:09:26;4.07;;;2.20;;
45077;SDS011;60508;42.622;25.416;2023-05-06T10:11:52;10.05;;;2.50;;
45077;SDS011;60508;42.622;25.416;2023-05-06T10:14:18;11.20;;;3.47;;
45077;SDS011;60508;42.622;25.416;2023-05-06T10:16:47;4.72;;;2.25;;
45077;SDS011;60508;42.622;25.416;2023-05-06T10:19:15;6.10;;;3.30;;
45077;SDS011;60508;42.622;25.416;2023-05-06T10:21:47;7.30;;;2.38;;
45077;SDS011;60508;42.622;25.416;2023-05-06T10:24:28;7.10;;;3.60;;
45077;SDS011;60508;42.622;25.416;2023-05-06T10:27:00;3.22;;;2.30;;
45077;SDS011;60508;42.622;25.416;2023-05-06T10:29:30;6.60;;;2.80;;
45077;SDS011;60508;42.622;25.416;2023-05-06T10:32:00;8.77;;;2.38;;
45077;SDS011;60508;42.622;25.416;2023-05-06T10:34:30;7.67;;;2.47;;
45077;SDS011;60508;42.622;25.416;2023-05-06T10:37:02;4.88;;;2.13;;
45077;SDS011;60508;42.622;25.416;2023-05-06T10:39:31;5.75;;;2.67;;
45077;SDS011;60508;42.622;25.416;2023-05-06T10:41:57;4.35;;;1.90;;
45077;SDS011;60508;42.622;25.416;2023-05-06T10:47:21;9.25;;;2.28;;
45077;SDS011;60508;42.622;25.416;2023-05-06T10:52:54;5.43;;;2.50;;
45077;SDS011;60508;42.622;25.416;2023-05-06T11:00:36;8.43;;;2.28;;
45077;SDS011;60508;42.622;25.416;2023-05-06T11:05:48;6.35;;;3.00;;
45077;SDS011;60508;42.622;25.416;2023-05-06T11:08:20;2.97;;;2.10;;
45077;SDS011;60508;42.622;25.416;2023-05-06T11:10:50;6.55;;;2.47;;
45077;SDS011;60508;42.622;25.416;2023-05-06T11:13:22;6.05;;;2.70;;
45077;SDS011;60508;42.622;25.416;2023-05-06T11:15:49;3.55;;;2.72;;
45077;SDS011;60508;42.622;25.416;2023-05-06T11:26:12;6.38;;;2.83;;
45077;SDS011;60508;42.622;25.416;2023-05-06T11:28:38;6.32;;;2.08;;
45077;SDS011;60508;42.622;25.416;2023-05-06T11:31:05;4.07;;;1.85;;
45077;SDS011;60508;42.622;25.416;2023-05-06T11:33:33;6.40;;;2.38;;
45077;SDS011;60508;42.622;25.416;2023-05-06T11:36:01;2.95;;;1.90;;
45077;SDS011;60508;42.622;25.416;2023-05-06T11:38:41;2.33;;;1.45;;
45077;SDS011;60508;42.622;25.416;2023-05-06T11:41:08;9.07;;;2.33;;
45077;SDS011;60508;42.622;25.416;2023-05-06T11:43:35;3.53;;;2.10;;
45077;SDS011;60508;42.622;25.416;2023-05-06T11:46:01;11.80;;;2.28;;
45077;SDS011;60508;42.622;25.416;2023-05-06T11:48:27;7.07;;;2.53;;
45077;SDS011;60508;42.622;25.416;2023-05-06T11:50:54;2.58;;;1.98;;
45077;SDS011;60508;42.622;25.416;2023-05-06T11:53:20;5.57;;;2.40;;
45077;SDS011;60508;42.622;25.416;2023-05-06T11:55:48;2.83;;;2.28;;
45077;SDS011;60508;42.622;25.416;2023-05-06T11:58:24;3.88;;;2.83;;
45077;SDS011;60508;42.622;25.416;2023-05-06T12:00:52;4.57;;;2.45;;
45077;SDS011;60508;42.622;25.416;2023-05-06T12:03:23;5.00;;;2.42;;
45077;SDS011;60508;42.622;25.416;2023-05-06T12:05:50;2.88;;;2.40;;
45077;SDS011;60508;42.622;25.416;2023-05-06T12:10:51;4.93;;;2.80;;
45077;SDS011;60508;42.622;25.416;2023-05-06T12:13:20;8.82;;;3.05;;
45077;SDS011;60508;42.622;25.416;2023-05-06T12:15:46;6.10;;;3.08;;
45077;SDS011;60508;42.622;25.416;2023-05-06T12:18:14;7.45;;;3.10;;
45077;SDS011;60508;42.622;25.416;2023-05-06T12:20:40;5.82;;;2.47;;
45077;SDS011;60508;42.622;25.416;2023-05-06T12:23:10;3.60;;;2.40;;
45077;SDS011;60508;42.622;25.416;2023-05-06T12:25:37;5.90;;;2.75;;
45077;SDS011;60508;42.622;25.416;2023-05-06T12:28:17;4.68;;;2.63;;
45077;SDS011;60508;42.622;25.416;2023-05-06T12:30:45;2.70;;;2.30;;
45077;SDS011;60508;42.622;25.416;2023-05-06T12:33:11;4.22;;;2.80;;
45077;SDS011;60508;42.622;25.416;2023-05-06T12:35:38;3.33;;;2.55;;
45077;SDS011;60508;42.622;25.416;2023-05-06T12:38:14;5.70;;;2.47;;
45077;SDS011;60508;42.622;25.416;2023-05-06T12:40:42;3.97;;;2.20;;
45077;SDS011;60508;42.622;25.416;2023-05-06T12:43:10;9.68;;;2.63;;
45077;SDS011;60508;42.622;25.416;2023-05-06T12:45:36;3.40;;;2.45;;
45077;SDS011;60508;42.622;25.416;2023-05-06T12:48:04;7.38;;;2.72;;
45077;SDS011;60508;42.622;25.416;2023-05-06T12:53:00;5.82;;;2.72;;
45077;SDS011;60508;42.622;25.416;2023-05-06T12:55:28;7.18;;;2.97;;
45077;SDS011;60508;42.622;25.416;2023-05-06T12:57:57;3.38;;;2.80;;
45077;SDS011;60508;42.622;25.416;2023-05-06T13:00:23;6.28;;;1.90;;
45077;SDS011;60508;42.622;25.416;2023-05-06T13:02:49;5.57;;;2.38;;
45077;SDS011;60508;42.622;25.416;2023-05-06T13:05:15;5.82;;;1.90;;
45077;SDS011;60508;42.622;25.416;2023-05-06T13:07:41;3.88;;;2.67;;
45077;SDS011;60508;42.622;25.416;2023-05-06T13:10:08;8.77;;;3.45;;
45077;SDS011;60508;42.622;25.416;2023-05-06T13:12:35;5.55;;;3.38;;
45077;SDS011;60508;42.622;25.416;2023-05-06T13:15:01;7.40;;;3.00;;
45077;SDS011;60508;42.622;25.416;2023-05-06T13:17:29;3.22;;;2.20;;
45077;SDS011;60508;42.622;25.416;2023-05-06T13:19:56;8.82;;;2.28;;
45077;SDS011;60508;42.622;25.416;2023-05-06T13:22:22;4.53;;;2.53;;
45077;SDS011;60508;42.622;25.416;2023-05-06T13:24:49;7.38;;;2.97;;
45077;SDS011;60508;42.622;25.416;2023-05-06T13:27:15;5.57;;;2.95;;
45077;SDS011;60508;42.622;25.416;2023-05-06T13:29:41;10.82;;;2.58;;
45077;SDS011;60508;42.622;25.416;2023-05-06T13:32:07;4.10;;;2.85;;
45077;SDS011;60508;42.622;25.416;2023-05-06T13:34:33;4.18;;;2.65;;
45077;SDS011;60508;42.622;25.416;2023-05-06T13:36:59;7.68;;;3.00;;
45077;SDS011;60508;42.622;25.416;2023-05-06T13:39:25;5.80;;;2.85;;
45077;SDS011;60508;42.622;25.416;2023-05-06T13:41:52;5.35;;;2.72;;
45077;SDS011;60508;42.622;25.416;2023-05-06T13:44:19;5.18;;;2.90;;
45077;SDS011;60508;42.622;25.416;2023-05-06T13:46:45;4.38;;;2.67;;
45077;SDS011;60508;42.622;25.416;2023-05-06T13:49:15;5.78;;;2.78;;
45077;SDS011;60508;42.622;25.416;2023-05-06T13:51:41;8.32;;;2.55;;
45077;SDS011;60508;42.622;25.416;2023-05-06T13:54:07;5.55;;;2.30;;
45077;SDS011;60508;42.622;25.416;2023-05-06T13:56:33;4.78;;;2.25;;
45077;SDS011;60508;42.622;25.416;2023-05-06T13:58:59;4.45;;;2.58;;
45077;SDS011;60508;42.622;25.416;2023-05-06T14:01:25;4.82;;;2.35;;
45077;SDS011;60508;42.622;25.416;2023-05-06T14:03:51;6.18;;;2.10;;
45077;SDS011;60508;42.622;25.416;2023-05-06T14:10:43;4.28;;;2.08;;
45077;SDS011;60508;42.622;25.416;2023-05-06T14:13:09;2.60;;;1.67;;
45077;SDS011;60508;42.622;25.416;2023-05-06T14:15:36;5.57;;;1.67;;
45077;SDS011;60508;42.622;25.416;2023-05-06T14:18:02;3.70;;;2.40;;
45077;SDS011;60508;42.622;25.416;2023-05-06T14:20:29;11.25;;;2.65;;
45077;SDS011;60508;42.622;25.416;2023-05-06T14:22:55;3.55;;;1.90;;
45077;SDS011;60508;42.622;25.416;2023-05-06T14:25:21;3.15;;;2.22;;
45077;SDS011;60508;42.622;25.416;2023-05-06T14:27:52;8.13;;;2.38;;
45077;SDS011;60508;42.622;25.416;2023-05-06T14:30:18;5.10;;;1.90;;
45077;SDS011;60508;42.622;25.416;2023-05-06T14:32:44;3.90;;;2.33;;
45077;SDS011;60508;42.622;25.416;2023-05-06T14:35:11;9.02;;;2.15;;
45077;SDS011;60508;42.622;25.416;2023-05-06T14:37:37;3.95;;;2.35;;
45077;SDS011;60508;42.622;25.416;2023-05-06T14:40:04;5.72;;;2.05;;
45077;SDS011;60508;42.622;25.416;2023-05-06T14:42:30;2.03;;;1.80;;
45077;SDS011;60508;42.622;25.416;2023-05-06T14:44:56;4.95;;;3.10;;
45077;SDS011;60508;42.622;25.416;2023-05-06T14:47:22;3.10;;;1.95;;
45077;SDS011;60508;42.622;25.416;2023-05-06T14:49:48;3.50;;;1.75;;
45077;SDS011;60508;42.622;25.416;2023-05-06T14:52:15;2.72;;;2.47;;
45077;SDS011;60508;42.622;25.416;2023-05-06T14:54:41;5.15;;;2.63;;
45077;SDS011;60508;42.622;25.416;2023-05-06T14:57:07;4.53;;;2.70;;
45077;SDS011;60508;42.622;25.416;2023-05-06T14:59:34;8.60;;;1.80;;
45077;SDS011;60508;42.622;25.416;2023-05-06T15:02:01;2.67;;;1.85;;
45077;SDS011;60508;42.622;25.416;2023-05-06T15:04:28;2.40;;;2.05;;
45077;SDS011;60508;42.622;25.416;2023-05-06T15:06:54;4.28;;;2.10;;
45077;SDS011;60508;42.622;25.416;2023-05-06T15:09:22;3.95;;;2.03;;